createdAt,value
2017-08-16T00:01:35.779Z,22.90
2017-08-16T00:04:04.838Z,22.87
2017-08-16T00:06:33.141Z,22.84
2017-08-16T00:09:01.508Z,22.80
2017-08-16T00:11:29.886Z,22.74
2017-08-16T00:13:58.273Z,22.75
2017-08-16T00:16:26.560Z,22.74
2017-08-16T00:18:54.876Z,22.71
2017-08-16T00:21:23.170Z,22.70
2017-08-16T00:23:51.480Z,22.68
2017-08-16T00:26:19.849Z,22.64
2017-08-16T00:28:48.149Z,22.56
2017-08-16T00:31:16.510Z,22.47
2017-08-16T00:33:44.825Z,22.34
2017-08-16T00:36:13.978Z,22.25
2017-08-16T00:38:42.357Z,22.19
2017-08-16T00:41:10.645Z,22.18
2017-08-16T00:43:38.949Z,22.13
2017-08-16T00:46:08.106Z,22.06
2017-08-16T00:48:36.408Z,21.95
2017-08-16T00:51:04.765Z,21.80
2017-08-16T00:53:33.133Z,21.69
2017-08-16T00:56:01.459Z,21.59
2017-08-16T00:58:30.518Z,21.50
2017-08-16T01:00:58.884Z,21.39
2017-08-16T01:03:27.269Z,21.29
2017-08-16T01:05:55.587Z,21.20
2017-08-16T01:08:24.740Z,21.09
2017-08-16T01:10:53.117Z,21.00
2017-08-16T01:13:21.409Z,20.92
2017-08-16T01:15:49.776Z,20.85
2017-08-16T01:18:18.165Z,20.79
2017-08-16T01:20:46.474Z,20.74
2017-08-16T01:23:15.541Z,20.68
2017-08-16T01:25:43.902Z,20.57
2017-08-16T01:28:12.284Z,20.52
2017-08-16T01:30:40.656Z,20.46
2017-08-16T01:33:08.945Z,20.42
2017-08-16T01:35:37.418Z,20.40
2017-08-16T01:38:05.730Z,20.39
2017-08-16T01:40:34.941Z,20.35
2017-08-16T01:43:04.005Z,20.33
2017-08-16T01:45:32.375Z,20.29
2017-08-16T01:48:00.719Z,20.26
2017-08-16T01:50:29.036Z,20.21
2017-08-16T01:52:57.342Z,20.16
2017-08-16T01:55:26.405Z,20.11
2017-08-16T01:57:54.789Z,20.06
2017-08-16T02:00:23.162Z,20.02
2017-08-16T02:02:51.503Z,19.98
2017-08-16T02:05:19.797Z,19.92
2017-08-16T02:07:48.170Z,19.89
2017-08-16T02:10:16.466Z,19.87
2017-08-16T02:12:44.766Z,19.80
2017-08-16T02:15:13.068Z,19.76
2017-08-16T02:17:41.366Z,19.67
2017-08-16T02:20:09.665Z,19.58
2017-08-16T02:22:37.956Z,19.56
2017-08-16T02:25:06.282Z,19.54
2017-08-16T02:27:34.577Z,19.53
2017-08-16T02:30:02.891Z,19.53
2017-08-16T02:32:31.263Z,19.54
2017-08-16T02:34:59.582Z,19.56
2017-08-16T02:37:27.926Z,19.57
2017-08-16T02:39:56.289Z,19.68
2017-08-16T02:42:24.581Z,19.72
2017-08-16T02:44:52.890Z,19.68
2017-08-16T02:47:21.188Z,19.60
2017-08-16T02:49:49.506Z,19.57
2017-08-16T02:52:17.881Z,19.61
2017-08-16T02:54:46.262Z,19.65
2017-08-16T02:57:14.573Z,19.69
2017-08-16T02:59:43.640Z,19.70
2017-08-16T03:02:11.959Z,19.65
2017-08-16T03:04:40.257Z,19.63
2017-08-16T03:07:08.661Z,19.57
2017-08-16T03:09:37.040Z,19.53
2017-08-16T03:12:05.353Z,19.50
2017-08-16T03:14:34.513Z,19.49
2017-08-16T03:17:02.814Z,19.48
2017-08-16T03:19:31.123Z,19.46
2017-08-16T03:21:59.439Z,19.48
2017-08-16T03:24:27.756Z,19.53
2017-08-16T03:26:56.833Z,19.59
2017-08-16T03:29:25.170Z,19.63
2017-08-16T03:31:53.506Z,19.65
2017-08-16T03:34:22.570Z,19.73
2017-08-16T03:36:50.882Z,19.80
2017-08-16T03:39:20.036Z,19.84
2017-08-16T03:41:48.430Z,19.89
2017-08-16T03:44:16.818Z,19.94
2017-08-16T03:46:45.176Z,19.99
2017-08-16T03:49:13.472Z,20.04
2017-08-16T03:51:41.770Z,20.09
2017-08-16T03:54:10.851Z,20.13
2017-08-16T03:56:39.232Z,20.16
2017-08-16T03:59:07.541Z,20.18
2017-08-16T04:01:35.834Z,20.17
2017-08-16T04:04:04.141Z,20.14
2017-08-16T04:06:32.494Z,20.11
2017-08-16T04:09:00.798Z,20.09
2017-08-16T04:11:29.085Z,20.10
2017-08-16T04:13:57.382Z,20.08
2017-08-16T04:16:26.465Z,20.08
2017-08-16T04:18:54.764Z,20.08
2017-08-16T04:21:23.918Z,20.06
2017-08-16T04:23:52.294Z,20.08
2017-08-16T04:26:20.613Z,20.11
2017-08-16T04:28:49.676Z,20.14
2017-08-16T04:31:17.982Z,20.16
2017-08-16T04:33:47.136Z,20.19
2017-08-16T04:36:15.512Z,20.23
2017-08-16T04:38:43.809Z,20.26
2017-08-16T04:41:12.120Z,20.27
2017-08-16T04:43:41.177Z,20.24
2017-08-16T04:46:09.482Z,20.23
2017-08-16T04:48:37.798Z,20.24
2017-08-16T04:51:06.123Z,20.22
2017-08-16T04:53:34.419Z,20.20
2017-08-16T04:56:03.482Z,20.18
2017-08-16T04:58:31.855Z,20.14
2017-08-16T05:01:00.245Z,20.09
2017-08-16T05:03:28.609Z,20.01
2017-08-16T05:05:56.905Z,19.96
2017-08-16T05:08:25.260Z,19.89
2017-08-16T05:10:53.545Z,19.89
2017-08-16T05:13:21.912Z,19.86
2017-08-16T05:15:50.213Z,19.86
2017-08-16T05:18:19.384Z,19.83
2017-08-16T05:20:47.766Z,19.81
2017-08-16T05:23:16.178Z,19.81
2017-08-16T05:25:44.469Z,19.81
2017-08-16T05:28:12.781Z,19.80
2017-08-16T05:30:41.185Z,19.77
2017-08-16T05:33:09.505Z,19.75
2017-08-16T05:35:38.562Z,19.74
2017-08-16T05:38:06.935Z,19.75
2017-08-16T05:40:35.237Z,19.76
2017-08-16T05:43:03.541Z,20.04
2017-08-16T05:45:31.839Z,20.02
2017-08-16T05:48:00.148Z,19.96
2017-08-16T05:50:28.518Z,19.95
2017-08-16T05:52:56.892Z,19.97
2017-08-16T05:55:25.298Z,20.01
2017-08-16T05:57:53.602Z,20.00
2017-08-16T06:00:22.682Z,20.00
2017-08-16T06:02:51.850Z,20.03
2017-08-16T06:05:20.241Z,20.01
2017-08-16T06:07:48.546Z,19.99
2017-08-16T06:10:17.709Z,20.01
2017-08-16T06:12:46.018Z,19.99
2017-08-16T06:15:15.105Z,20.04
2017-08-16T06:17:44.163Z,20.04
2017-08-16T06:20:12.467Z,20.04
2017-08-16T06:22:40.779Z,20.03
2017-08-16T06:25:09.073Z,20.04
2017-08-16T06:27:37.381Z,20.06
2017-08-16T06:30:05.679Z,20.08
2017-08-16T06:32:33.980Z,20.13
2017-08-16T06:35:02.314Z,20.14
2017-08-16T06:37:30.617Z,20.16
2017-08-16T06:39:59.790Z,20.22
2017-08-16T06:42:28.165Z,20.34
2017-08-16T06:44:56.490Z,20.44
2017-08-16T06:47:24.792Z,20.53
2017-08-16T06:49:53.082Z,20.62
2017-08-16T06:52:21.393Z,20.69
2017-08-16T06:54:49.744Z,20.77
2017-08-16T06:57:18.058Z,20.85
2017-08-16T06:59:47.149Z,20.93
2017-08-16T07:02:15.450Z,20.97
2017-08-16T07:04:43.749Z,20.99
2017-08-16T07:07:12.054Z,21.07
2017-08-16T07:09:40.365Z,21.14
2017-08-16T07:12:09.445Z,21.25
2017-08-16T07:14:37.748Z,21.38
2017-08-16T07:17:06.802Z,21.58
2017-08-16T07:19:35.902Z,21.89
2017-08-16T07:22:04.213Z,22.34
2017-08-16T07:24:33.284Z,22.78
2017-08-16T07:27:01.637Z,23.29
2017-08-16T07:29:29.956Z,23.63
2017-08-16T07:31:59.016Z,23.85
2017-08-16T07:34:27.393Z,24.12
2017-08-16T07:36:55.782Z,24.16
2017-08-16T07:39:24.073Z,23.94
2017-08-16T07:41:52.429Z,23.53
2017-08-16T07:44:20.730Z,23.39
2017-08-16T07:46:49.079Z,23.63
2017-08-16T07:49:17.461Z,24.04
2017-08-16T07:51:45.765Z,24.69
2017-08-16T07:54:14.849Z,25.17
2017-08-16T07:56:43.227Z,25.55
2017-08-16T07:59:11.529Z,26.08
2017-08-16T08:01:40.645Z,25.74
2017-08-16T08:04:08.966Z,25.00
2017-08-16T08:06:37.278Z,25.36
2017-08-16T08:09:06.342Z,26.43
2017-08-16T08:11:34.725Z,26.70
2017-08-16T08:14:03.025Z,26.12
2017-08-16T08:16:32.100Z,26.20
2017-08-16T08:19:00.468Z,26.21
2017-08-16T08:21:28.760Z,26.49
2017-08-16T08:23:57.127Z,26.95
2017-08-16T08:26:25.505Z,27.80
2017-08-16T08:28:53.810Z,28.00
2017-08-16T08:31:22.872Z,28.29
2017-08-16T08:33:51.177Z,28.64
2017-08-16T08:36:20.243Z,28.61
2017-08-16T08:38:48.552Z,28.43
2017-08-16T08:41:17.821Z,28.22
2017-08-16T08:43:46.192Z,28.02
2017-08-16T08:46:14.579Z,28.12
2017-08-16T08:48:42.892Z,28.86
2017-08-16T08:51:11.996Z,29.11
2017-08-16T08:53:40.320Z,28.61
2017-08-16T08:56:08.609Z,27.97
2017-08-16T08:58:36.903Z,27.37
2017-08-16T09:01:05.210Z,26.97
2017-08-16T09:03:33.537Z,26.55
2017-08-16T09:06:01.842Z,26.15
2017-08-16T09:08:30.903Z,26.02
2017-08-16T09:10:59.285Z,26.34
2017-08-16T09:13:27.584Z,27.26
2017-08-16T09:15:55.904Z,28.60
2017-08-16T09:18:24.203Z,28.09
2017-08-16T09:20:52.544Z,29.30
2017-08-16T09:23:20.880Z,30.67
2017-08-16T09:25:49.181Z,31.76
2017-08-16T09:28:18.237Z,35.37
2017-08-16T09:30:46.538Z,34.23
2017-08-16T09:33:14.906Z,32.65
2017-08-16T09:35:43.203Z,31.49
2017-08-16T09:38:11.497Z,30.99
2017-08-16T09:40:40.645Z,31.05
2017-08-16T09:43:09.033Z,31.25
2017-08-16T09:45:37.334Z,30.86
2017-08-16T09:48:06.497Z,30.35
2017-08-16T09:50:34.798Z,29.73
2017-08-16T09:53:03.104Z,29.24
2017-08-16T09:55:31.394Z,29.23
2017-08-16T09:57:59.694Z,29.09
2017-08-16T10:00:28.090Z,29.62
2017-08-16T10:02:56.391Z,29.93
2017-08-16T10:05:24.745Z,30.23
2017-08-16T10:07:53.116Z,32.24
2017-08-16T10:10:21.502Z,32.48
2017-08-16T10:12:49.873Z,30.85
2017-08-16T10:15:18.180Z,29.40
2017-08-16T10:17:46.519Z,28.12
2017-08-16T10:20:14.909Z,27.10
2017-08-16T10:22:43.204Z,26.54
2017-08-16T10:25:11.570Z,26.47
2017-08-16T10:27:39.957Z,26.81
2017-08-16T10:30:08.260Z,27.77
2017-08-16T10:32:37.329Z,28.42
2017-08-16T10:35:05.632Z,29.00
2017-08-16T10:37:34.732Z,28.79
2017-08-16T10:40:03.892Z,29.34
2017-08-16T10:42:32.192Z,30.55
2017-08-16T10:45:00.549Z,30.23
2017-08-16T10:47:28.857Z,30.59
2017-08-16T10:49:57.933Z,30.52
2017-08-16T10:52:26.237Z,30.39
2017-08-16T10:54:55.308Z,30.32
2017-08-16T10:57:23.601Z,30.58
2017-08-16T10:59:52.756Z,30.64
2017-08-16T11:02:21.062Z,30.58
2017-08-16T11:04:49.379Z,30.66
2017-08-16T11:07:17.681Z,30.72
2017-08-16T11:09:45.976Z,30.61
2017-08-16T11:12:14.278Z,30.93
2017-08-16T11:14:43.453Z,30.46
2017-08-16T11:17:11.820Z,30.32
2017-08-16T11:19:40.124Z,30.38
2017-08-16T11:22:08.489Z,29.82
2017-08-16T11:24:36.862Z,29.47
2017-08-16T11:27:05.232Z,29.05
2017-08-16T11:29:33.617Z,28.86
2017-08-16T11:32:01.920Z,28.61
2017-08-16T11:34:30.264Z,28.39
2017-08-16T11:36:58.648Z,27.88
2017-08-16T11:39:26.943Z,27.44
2017-08-16T11:41:55.302Z,27.61
2017-08-16T11:44:23.599Z,28.07
2017-08-16T11:46:51.957Z,28.59
2017-08-16T11:49:20.264Z,28.88
2017-08-16T11:51:49.329Z,28.47
2017-08-16T11:54:17.631Z,27.90
2017-08-16T11:56:45.987Z,27.26
2017-08-16T11:59:14.370Z,26.91
2017-08-16T12:01:42.688Z,27.25
2017-08-16T12:04:11.025Z,27.73
2017-08-16T12:06:39.331Z,27.84
2017-08-16T12:09:08.499Z,28.05
2017-08-16T12:11:36.866Z,28.31
2017-08-16T12:14:05.248Z,28.76
2017-08-16T12:16:33.545Z,28.55
2017-08-16T12:19:01.882Z,28.49
2017-08-16T12:21:30.187Z,28.11
2017-08-16T12:23:58.560Z,28.38
2017-08-16T12:26:26.945Z,28.15
2017-08-16T12:28:55.246Z,27.52
2017-08-16T12:31:24.313Z,27.96
2017-08-16T12:33:52.701Z,28.45
2017-08-16T12:36:21.027Z,28.62
2017-08-16T12:38:49.330Z,29.01
2017-08-16T12:41:17.648Z,29.31
2017-08-16T12:43:45.950Z,29.52
2017-08-16T12:46:14.383Z,29.67
2017-08-16T12:48:42.680Z,29.47
2017-08-16T12:51:10.980Z,29.55
2017-08-16T12:53:40.058Z,29.98
2017-08-16T12:56:09.120Z,30.28
2017-08-16T12:58:37.416Z,30.24
2017-08-16T13:01:05.786Z,30.18
2017-08-16T13:03:34.077Z,30.24
2017-08-16T13:06:02.447Z,30.29
2017-08-16T13:08:30.820Z,30.44
2017-08-16T13:10:59.195Z,29.79
2017-08-16T13:13:27.506Z,29.98
2017-08-16T13:15:56.565Z,30.68
2017-08-16T13:18:24.884Z,31.09
2017-08-16T13:20:53.948Z,31.10
2017-08-16T13:23:22.314Z,31.11
2017-08-16T13:25:50.623Z,30.85
2017-08-16T13:28:19.693Z,31.06
2017-08-16T13:30:48.063Z,31.50
2017-08-16T13:33:16.437Z,31.81
2017-08-16T13:35:44.746Z,32.29
2017-08-16T13:38:13.841Z,32.22
2017-08-16T13:40:42.953Z,31.57
2017-08-16T13:43:11.290Z,31.14
2017-08-16T13:45:39.598Z,31.10
2017-08-16T13:48:08.720Z,30.97
2017-08-16T13:50:37.030Z,29.91
2017-08-16T13:53:05.327Z,30.48
2017-08-16T13:55:33.635Z,29.42
2017-08-16T13:58:02.698Z,28.99
2017-08-16T14:00:31.078Z,28.99
2017-08-16T14:02:59.372Z,28.80
2017-08-16T14:05:28.553Z,28.67
2017-08-16T14:07:56.921Z,28.94
2017-08-16T14:10:25.225Z,29.07
2017-08-16T14:12:54.288Z,30.17
2017-08-16T14:15:22.596Z,30.42
2017-08-16T14:17:51.772Z,30.89
2017-08-16T14:20:20.146Z,30.63
2017-08-16T14:22:48.450Z,29.91
2017-08-16T14:25:17.512Z,29.06
2017-08-16T14:27:45.889Z,29.05
2017-08-16T14:30:14.186Z,28.49
2017-08-16T14:32:42.555Z,27.97
2017-08-16T14:35:10.925Z,28.27
2017-08-16T14:37:39.313Z,28.63
2017-08-16T14:40:07.690Z,28.77
2017-08-16T14:42:36.061Z,28.74
2017-08-16T14:45:04.387Z,28.53
2017-08-16T14:47:33.466Z,27.96
2017-08-16T14:50:02.538Z,27.50
2017-08-16T14:52:30.905Z,27.25
2017-08-16T14:54:59.290Z,26.95
2017-08-16T14:57:27.593Z,26.92
2017-08-16T14:59:55.893Z,27.68
2017-08-16T15:02:24.217Z,28.01
2017-08-16T15:04:52.616Z,28.39
2017-08-16T15:07:20.919Z,29.28
2017-08-16T15:09:49.992Z,29.74
2017-08-16T15:12:18.289Z,30.37
2017-08-16T15:14:47.357Z,30.83
2017-08-16T15:17:15.649Z,31.17
2017-08-16T15:19:43.958Z,31.30
2017-08-16T15:22:12.272Z,31.36
2017-08-16T15:24:40.579Z,31.20
2017-08-16T15:27:08.877Z,31.14
2017-08-16T15:29:37.939Z,30.57
2017-08-16T15:32:06.244Z,30.24
2017-08-16T15:34:35.392Z,29.68
2017-08-16T15:37:03.686Z,29.47
2017-08-16T15:39:32.048Z,29.39
2017-08-16T15:42:00.345Z,29.18
2017-08-16T15:44:28.665Z,28.76
2017-08-16T15:46:57.062Z,28.38
2017-08-16T15:49:25.358Z,28.27
2017-08-16T15:51:53.665Z,28.29
2017-08-16T15:54:21.968Z,28.24
2017-08-16T15:56:50.275Z,28.38
2017-08-16T15:59:18.565Z,28.51
2017-08-16T16:01:46.860Z,28.49
2017-08-16T16:04:15.167Z,28.34
2017-08-16T16:06:44.245Z,28.24
2017-08-16T16:09:12.548Z,28.12
2017-08-16T16:11:40.862Z,28.11
2017-08-16T16:14:09.161Z,27.99
2017-08-16T16:16:37.490Z,27.93
2017-08-16T16:19:05.796Z,28.02
2017-08-16T16:21:34.096Z,27.96
2017-08-16T16:24:02.419Z,27.74
2017-08-16T16:26:30.713Z,27.54
2017-08-16T16:28:59.019Z,27.25
2017-08-16T16:31:27.329Z,26.99
2017-08-16T16:33:56.481Z,26.83
2017-08-16T16:36:24.764Z,26.72
2017-08-16T16:38:53.069Z,26.60
2017-08-16T16:41:21.430Z,26.42
2017-08-16T16:43:49.769Z,26.31
2017-08-16T16:46:18.090Z,26.15
2017-08-16T16:48:46.453Z,26.01
2017-08-16T16:51:14.833Z,25.78
2017-08-16T16:53:43.213Z,25.67
2017-08-16T16:56:11.543Z,25.60
2017-08-16T16:58:39.970Z,25.51
2017-08-16T17:01:08.360Z,25.39
2017-08-16T17:03:36.674Z,25.34
2017-08-16T17:06:05.010Z,25.29
2017-08-16T17:08:33.386Z,25.25
2017-08-16T17:11:01.731Z,25.23
2017-08-16T17:13:30.029Z,25.20
2017-08-16T17:15:58.407Z,25.15
2017-08-16T17:18:26.788Z,25.06
2017-08-16T17:20:55.089Z,24.98
2017-08-16T17:23:23.427Z,24.89
2017-08-16T17:25:51.726Z,24.79
2017-08-16T17:28:20.042Z,24.73
2017-08-16T17:30:49.112Z,24.62
2017-08-16T17:33:17.477Z,24.52
2017-08-16T17:35:45.769Z,24.44
2017-08-16T17:38:14.128Z,24.38
2017-08-16T17:40:42.439Z,24.33
2017-08-16T17:43:11.504Z,24.27
2017-08-16T17:45:39.812Z,24.21
2017-08-16T17:48:08.887Z,24.16
2017-08-16T17:50:37.205Z,24.09
2017-08-16T17:53:05.528Z,24.01
2017-08-16T17:55:33.905Z,23.94
2017-08-16T17:58:02.289Z,23.86
2017-08-16T18:00:30.669Z,23.77
2017-08-16T18:02:58.977Z,23.68
2017-08-16T18:05:28.057Z,23.58
2017-08-16T18:07:57.154Z,23.48
2017-08-16T18:10:25.450Z,23.38
2017-08-16T18:12:54.666Z,23.28
2017-08-16T18:15:22.965Z,23.18
2017-08-16T18:17:51.288Z,23.12
2017-08-16T18:20:19.642Z,23.02
2017-08-16T18:22:47.947Z,22.95
2017-08-16T18:25:16.256Z,22.89
2017-08-16T18:27:44.573Z,22.80
2017-08-16T18:30:12.897Z,22.72
2017-08-16T18:32:41.193Z,22.65
2017-08-16T18:35:09.517Z,22.54
2017-08-16T18:37:37.814Z,22.47
2017-08-16T18:40:06.138Z,22.37
2017-08-16T18:42:34.441Z,22.28
2017-08-16T18:45:02.761Z,22.20
2017-08-16T18:47:31.822Z,22.14
2017-08-16T18:50:00.201Z,22.09
2017-08-16T18:52:28.570Z,22.04
2017-08-16T18:54:56.871Z,21.99
2017-08-16T18:57:25.945Z,21.92
2017-08-16T18:59:54.258Z,21.86
2017-08-16T19:02:22.593Z,21.81
2017-08-16T19:04:50.978Z,21.77
2017-08-16T19:07:19.289Z,21.73
2017-08-16T19:09:48.353Z,21.67
2017-08-16T19:12:16.686Z,21.61
2017-08-16T19:14:45.008Z,21.54
2017-08-16T19:17:13.380Z,21.50
2017-08-16T19:19:41.766Z,21.45
2017-08-16T19:22:10.135Z,21.41
2017-08-16T19:24:38.449Z,21.38
2017-08-16T19:27:07.614Z,21.34
2017-08-16T19:29:36.013Z,21.28
2017-08-16T19:32:04.366Z,21.22
2017-08-16T19:34:32.669Z,21.16
2017-08-16T19:37:00.959Z,21.10
2017-08-16T19:39:30.128Z,21.06
2017-08-16T19:41:58.502Z,21.00
2017-08-16T19:44:26.882Z,20.95
2017-08-16T19:46:55.183Z,20.92
2017-08-16T19:49:24.245Z,20.90
2017-08-16T19:51:52.540Z,20.86
2017-08-16T19:54:20.842Z,20.82
2017-08-16T19:56:49.916Z,20.77
2017-08-16T19:59:18.284Z,20.71
2017-08-16T20:01:46.599Z,20.68
2017-08-16T20:04:14.902Z,20.63
2017-08-16T20:06:43.209Z,20.57
2017-08-16T20:09:11.590Z,20.53
2017-08-16T20:11:39.934Z,20.47
2017-08-16T20:14:08.237Z,20.42
2017-08-16T20:16:36.538Z,20.34
2017-08-16T20:19:04.844Z,20.25
2017-08-16T20:21:33.164Z,20.18
2017-08-16T20:24:01.550Z,20.13
2017-08-16T20:26:29.941Z,20.11
2017-08-16T20:28:58.245Z,20.05
2017-08-16T20:31:27.476Z,19.95
2017-08-16T20:33:55.889Z,19.94
2017-08-16T20:36:24.203Z,19.94
2017-08-16T20:38:53.357Z,19.93
2017-08-16T20:41:21.728Z,19.91
2017-08-16T20:43:50.212Z,19.85
2017-08-16T20:46:18.593Z,19.82
2017-08-16T20:48:46.975Z,19.77
2017-08-16T20:51:15.265Z,19.72
2017-08-16T20:53:43.565Z,19.67
2017-08-16T20:56:12.638Z,19.61
2017-08-16T20:58:40.942Z,19.57
2017-08-16T21:01:10.138Z,19.52
2017-08-16T21:03:39.201Z,19.47
2017-08-16T21:06:07.506Z,19.43
2017-08-16T21:08:36.677Z,19.39
2017-08-16T21:11:04.984Z,19.35
2017-08-16T21:13:34.136Z,19.30
2017-08-16T21:16:02.436Z,19.24
2017-08-16T21:18:30.801Z,19.21
2017-08-16T21:20:59.184Z,19.19
2017-08-16T21:23:27.476Z,19.13
2017-08-16T21:25:55.788Z,19.07
2017-08-16T21:28:24.093Z,19.02
2017-08-16T21:30:52.405Z,18.97
2017-08-16T21:33:20.713Z,18.94
2017-08-16T21:35:49.017Z,18.92
2017-08-16T21:38:17.330Z,18.92
2017-08-16T21:40:45.643Z,18.90
2017-08-16T21:43:14.078Z,18.88
2017-08-16T21:45:42.388Z,18.86
2017-08-16T21:48:11.454Z,18.84
2017-08-16T21:50:39.787Z,18.79
2017-08-16T21:53:08.109Z,18.78
2017-08-16T21:55:36.488Z,18.76
2017-08-16T21:58:04.776Z,18.75
2017-08-16T22:00:33.080Z,18.67
2017-08-16T22:03:02.234Z,18.65
2017-08-16T22:05:30.613Z,18.62
2017-08-16T22:07:59.001Z,18.57
2017-08-16T22:10:27.356Z,18.54
2017-08-16T22:12:55.751Z,18.49
2017-08-16T22:15:24.053Z,18.45
2017-08-16T22:17:53.217Z,18.43
2017-08-16T22:20:21.595Z,18.40
2017-08-16T22:22:49.937Z,18.38
2017-08-16T22:25:18.258Z,18.36
2017-08-16T22:27:46.641Z,18.31
2017-08-16T22:30:15.011Z,18.28
2017-08-16T22:32:43.388Z,18.26
2017-08-16T22:35:11.778Z,18.21
2017-08-16T22:37:40.140Z,18.18
2017-08-16T22:40:08.527Z,18.12
2017-08-16T22:42:36.833Z,18.07
2017-08-16T22:45:05.972Z,18.08
2017-08-16T22:47:34.269Z,18.06
2017-08-16T22:50:02.673Z,18.05
2017-08-16T22:52:30.990Z,18.04
2017-08-16T22:54:59.293Z,18.04
2017-08-16T22:57:27.591Z,18.00
2017-08-16T22:59:55.984Z,17.97
2017-08-16T23:02:24.281Z,17.96
2017-08-16T23:04:53.445Z,17.94
2017-08-16T23:07:21.747Z,17.93
2017-08-16T23:09:50.815Z,17.89
2017-08-16T23:12:19.194Z,17.88
2017-08-16T23:14:47.489Z,17.87
2017-08-16T23:17:15.870Z,17.84
2017-08-16T23:19:45.037Z,17.82
2017-08-16T23:22:13.430Z,17.76
2017-08-16T23:24:41.739Z,17.72
2017-08-16T23:27:10.070Z,17.69
2017-08-16T23:29:38.372Z,17.65
2017-08-16T23:32:07.544Z,17.61
2017-08-16T23:34:35.936Z,17.60
2017-08-16T23:37:04.249Z,17.57
2017-08-16T23:39:33.320Z,17.54
2017-08-16T23:42:01.687Z,17.50
2017-08-16T23:44:30.044Z,17.47
2017-08-16T23:46:58.444Z,17.44
2017-08-16T23:49:26.812Z,17.44
2017-08-16T23:51:55.121Z,17.45
2017-08-16T23:54:24.284Z,17.40
2017-08-16T23:56:52.687Z,17.35
2017-08-16T23:59:21.008Z,17.32
